McKenney, Virginia
Current Conditions -  °F | °C
As of 9:55 PM on Friday 31 Oct 2014 (Local Time) from KBKT Reporting Station
Overcast Overcast  
Wind Chill: 48°   Ceiling: 5000
Heat Index: 48°   Visibility: 10mi
Dew Point: 43°   Wind: 3mph
Humidity: 84%   Direction: 50°NE
Pressure: 29.82"   Gusts: NA
Location:  36.99°N, 77.72°W
Report Text: KBKT 010155Z AUTO 05003KT 10SM OVC050 09/06 A2982 RMK AO1 T00870062
Loading
Personal Weather Stations






























Interactive Weather Map
Tropical Storm Tracking
New forecast layout! Learn more

10-Day Weather Forecast

Advertisements
Track Severe Weather on mobile